createdAt,value
2022-10-04T00:00:50.446Z,5.3
2022-10-04T00:02:50.497Z,5.2
2022-10-04T00:04:50.090Z,5.1
2022-10-04T00:06:50.245Z,5.2
2022-10-04T00:08:50.201Z,5.3
2022-10-04T00:10:50.040Z,5.3
2022-10-04T00:12:50.144Z,5.7
2022-10-04T00:14:49.940Z,5.4
2022-10-04T00:16:50.325Z,6.0
2022-10-04T00:18:50.122Z,6.0
2022-10-04T00:20:50.250Z,5.6
2022-10-04T00:22:50.628Z,5.3
2022-10-04T00:24:50.673Z,5.1
2022-10-04T00:26:50.048Z,5.1
2022-10-04T00:28:50.008Z,5.6
2022-10-04T00:30:49.993Z,5.6
2022-10-04T00:32:50.231Z,5.6
2022-10-04T00:34:49.716Z,5.4
2022-10-04T00:36:50.284Z,5.4
2022-10-04T00:38:50.354Z,5.0
2022-10-04T00:40:50.348Z,5.2
2022-10-04T00:42:50.498Z,4.9
2022-10-04T00:44:50.407Z,5.2
2022-10-04T00:46:49.807Z,5.0
2022-10-04T00:48:49.746Z,5.0
2022-10-04T00:50:50.652Z,5.2
2022-10-04T00:52:49.703Z,5.1
2022-10-04T00:54:50.614Z,5.1
2022-10-04T00:56:49.836Z,5.1
2022-10-04T00:58:49.737Z,5.1
2022-10-04T01:00:50.018Z,5.5
2022-10-04T01:02:50.568Z,5.5
2022-10-04T01:04:50.297Z,5.5
2022-10-04T01:06:50.604Z,5.5
2022-10-04T01:08:50.418Z,5.1
2022-10-04T01:10:50.510Z,5.6
2022-10-04T01:12:50.504Z,5.6
2022-10-04T01:14:50.453Z,5.1
2022-10-04T01:16:49.775Z,5.1
2022-10-04T01:18:49.976Z,5.5
2022-10-04T01:20:49.981Z,5.6
2022-10-04T01:22:49.958Z,5.6
2022-10-04T01:24:50.157Z,5.0
2022-10-04T01:26:50.526Z,5.0
2022-10-04T01:28:49.685Z,5.1
2022-10-04T01:30:50.573Z,5.3
2022-10-04T01:32:50.624Z,5.3
2022-10-04T01:34:50.129Z,5.3
2022-10-04T01:36:50.310Z,5.3
2022-10-04T01:38:50.437Z,5.4
2022-10-04T01:40:50.166Z,5.2
2022-10-04T01:42:50.263Z,5.2
2022-10-04T01:44:50.083Z,5.2
2022-10-04T01:46:50.747Z,5.0
2022-10-04T01:48:49.933Z,5.3
2022-10-04T01:50:49.831Z,5.4
2022-10-04T01:52:49.726Z,6.0
2022-10-04T01:54:49.705Z,6.0
2022-10-04T01:56:50.034Z,5.6
2022-10-04T01:58:49.800Z,5.5
2022-10-04T02:00:49.828Z,6.4
2022-10-04T02:02:49.946Z,4.9
2022-10-04T02:04:50.363Z,4.9
2022-10-04T02:06:49.927Z,5.8
2022-10-04T02:08:49.980Z,5.6
2022-10-04T02:10:50.030Z,5.2
2022-10-04T02:12:49.913Z,5.1
2022-10-04T02:14:49.816Z,5.1
2022-10-04T02:16:49.881Z,5.2
2022-10-04T02:18:49.878Z,4.7
2022-10-04T02:20:49.821Z,5.0
2022-10-04T02:22:49.838Z,5.0
2022-10-04T02:24:49.777Z,5.2
2022-10-04T02:26:49.922Z,5.1
2022-10-04T02:28:50.039Z,5.5
2022-10-04T02:30:50.058Z,5.5
2022-10-04T02:32:50.293Z,5.3
2022-10-04T02:34:49.745Z,5.0
2022-10-04T02:36:50.083Z,5.7
2022-10-04T02:38:50.095Z,5.3
2022-10-04T02:40:49.843Z,5.3
2022-10-04T02:42:50.741Z,5.1
2022-10-04T02:44:50.545Z,5.6
2022-10-04T02:46:49.859Z,5.8
2022-10-04T02:48:50.100Z,5.4
2022-10-04T02:50:50.109Z,5.6
2022-10-04T02:52:49.990Z,5.6
2022-10-04T02:54:50.150Z,5.9
2022-10-04T02:56:50.218Z,5.9
2022-10-04T02:58:50.097Z,5.9
2022-10-04T03:00:50.292Z,5.9
2022-10-04T03:02:50.536Z,6.4
2022-10-04T03:04:50.170Z,6.0
2022-10-04T03:06:50.281Z,6.0
2022-10-04T03:08:50.373Z,5.6
2022-10-04T03:10:50.260Z,5.5
2022-10-04T03:12:50.098Z,5.3
2022-10-04T03:14:49.893Z,5.4
2022-10-04T03:16:49.998Z,5.1
2022-10-04T03:18:49.911Z,5.4
2022-10-04T03:20:49.759Z,5.4
2022-10-04T03:22:49.740Z,5.5
2022-10-04T03:24:49.675Z,5.1
2022-10-04T03:26:49.748Z,5.1
2022-10-04T03:28:49.713Z,5.3
2022-10-04T03:30:50.539Z,5.3
2022-10-04T03:32:49.733Z,5.4
2022-10-04T03:34:50.255Z,5.4
2022-10-04T03:36:50.520Z,5.9
2022-10-04T03:38:50.456Z,5.9
2022-10-04T03:40:50.285Z,5.9
2022-10-04T03:42:50.371Z,5.5
2022-10-04T03:44:50.153Z,5.5
2022-10-04T03:46:50.276Z,6.2
2022-10-04T03:48:50.217Z,5.8
2022-10-04T03:50:50.367Z,5.8
2022-10-04T03:52:50.201Z,6.3
2022-10-04T03:54:50.121Z,6.0
2022-10-04T03:56:50.621Z,6.2
2022-10-04T03:58:50.324Z,5.7
2022-10-04T04:00:50.515Z,5.7
2022-10-04T04:02:50.663Z,5.8
2022-10-04T04:04:50.065Z,5.5
2022-10-04T04:06:50.286Z,5.6
2022-10-04T04:08:50.306Z,6.1
2022-10-04T04:10:50.162Z,6.1
2022-10-04T04:12:50.204Z,6.0
2022-10-04T04:14:50.059Z,5.8
2022-10-04T04:16:50.231Z,5.8
2022-10-04T04:18:50.161Z,5.8
2022-10-04T04:20:50.026Z,5.4
2022-10-04T04:22:49.963Z,5.6
2022-10-04T04:24:49.933Z,5.6
2022-10-04T04:26:50.256Z,5.6
2022-10-04T04:28:50.246Z,5.9
2022-10-04T04:30:50.125Z,6.3
2022-10-04T04:32:50.167Z,6.8
2022-10-04T04:34:50.603Z,6.8
2022-10-04T04:36:50.066Z,6.8
2022-10-04T04:38:49.989Z,7.2
2022-10-04T04:40:49.743Z,6.9
2022-10-04T04:42:49.834Z,6.8
2022-10-04T04:44:50.654Z,6.8
2022-10-04T04:46:49.834Z,6.7
2022-10-04T04:48:49.962Z,6.7
2022-10-04T04:50:49.956Z,7.1
2022-10-04T04:52:49.881Z,6.5
2022-10-04T04:54:49.832Z,6.5
2022-10-04T04:56:50.102Z,6.0
2022-10-04T04:58:50.080Z,6.0
2022-10-04T05:00:49.970Z,6.2
2022-10-04T05:02:58.301Z,6.2
2022-10-04T05:04:50.544Z,6.2
2022-10-04T05:06:49.814Z,6.2
2022-10-04T05:08:49.864Z,6.3
2022-10-04T05:10:49.690Z,6.0
2022-10-04T05:12:50.576Z,5.8
2022-10-04T05:14:49.706Z,5.8
2022-10-04T05:16:50.056Z,5.7
2022-10-04T05:18:50.205Z,6.1
2022-10-04T05:20:49.941Z,5.4
2022-10-04T05:22:49.954Z,5.4
2022-10-04T05:24:49.948Z,5.7
2022-10-04T05:26:50.314Z,5.7
2022-10-04T05:28:50.387Z,6.5
2022-10-04T05:30:50.247Z,6.6
2022-10-04T05:32:50.262Z,6.2
2022-10-04T05:34:50.604Z,6.1
2022-10-04T05:36:49.896Z,6.1
2022-10-04T05:38:50.666Z,6.4
2022-10-04T05:40:50.535Z,6.1
2022-10-04T05:42:49.746Z,6.4
2022-10-04T05:44:50.616Z,6.1
2022-10-04T05:46:49.815Z,6.1
2022-10-04T05:48:49.731Z,6.0
2022-10-04T05:50:49.818Z,6.2
2022-10-04T05:52:49.855Z,6.8
2022-10-04T05:54:49.699Z,6.8
2022-10-04T05:56:49.880Z,6.5
2022-10-04T05:58:50.636Z,6.5
2022-10-04T06:00:49.843Z,6.5
2022-10-04T06:02:50.161Z,6.8
2022-10-04T06:04:49.730Z,6.8
2022-10-04T06:06:50.131Z,6.9
2022-10-04T06:08:50.014Z,6.7
2022-10-04T06:10:50.129Z,6.8
2022-10-04T06:12:50.051Z,6.9
2022-10-04T06:14:49.968Z,6.9
2022-10-04T06:16:50.225Z,6.8
2022-10-04T06:18:50.399Z,6.7
2022-10-04T06:20:50.515Z,7.2
2022-10-04T06:22:50.443Z,6.3
2022-10-04T06:24:50.570Z,6.3
2022-10-04T06:26:49.889Z,7.4
2022-10-04T06:28:49.974Z,7.1
2022-10-04T06:30:49.907Z,6.5
2022-10-04T06:32:50.039Z,6.5
2022-10-04T06:34:50.505Z,6.8
2022-10-04T06:36:49.677Z,7.0
2022-10-04T06:38:49.690Z,7.2
2022-10-04T06:40:50.526Z,6.7
2022-10-04T06:42:50.635Z,6.7
2022-10-04T06:44:50.629Z,7.7
2022-10-04T06:46:49.956Z,6.5
2022-10-04T06:48:50.052Z,6.0
2022-10-04T06:50:49.938Z,6.5
2022-10-04T06:52:49.927Z,6.5
2022-10-04T06:54:50.109Z,6.1
2022-10-04T06:56:50.410Z,5.7
2022-10-04T06:58:50.489Z,6.0
2022-10-04T07:00:50.617Z,5.7
2022-10-04T07:02:49.923Z,5.7
2022-10-04T07:05:08.359Z,5.5
2022-10-04T07:06:50.584Z,5.7
2022-10-04T07:08:50.627Z,5.8
2022-10-04T07:10:50.470Z,5.8
2022-10-04T07:12:50.438Z,5.5
2022-10-04T07:14:50.390Z,6.5
2022-10-04T07:16:49.692Z,6.0
2022-10-04T07:18:49.770Z,5.3
2022-10-04T07:20:49.772Z,5.3
2022-10-04T07:22:50.003Z,6.4
2022-10-04T07:24:49.971Z,5.4
2022-10-04T07:26:50.227Z,5.1
2022-10-04T07:28:50.207Z,5.0
2022-10-04T07:30:50.504Z,5.0
2022-10-04T07:32:49.703Z,4.9
2022-10-04T07:34:50.418Z,5.0
2022-10-04T07:36:49.762Z,5.0
2022-10-04T07:38:50.622Z,5.5
2022-10-04T07:40:49.735Z,5.5
2022-10-04T07:42:50.561Z,5.3
2022-10-04T07:44:50.647Z,5.0
2022-10-04T07:46:49.850Z,5.0
2022-10-04T07:48:49.890Z,5.1
2022-10-04T07:50:49.758Z,5.1
2022-10-04T07:52:49.719Z,5.1
2022-10-04T07:54:49.861Z,5.2
2022-10-04T07:56:50.087Z,5.2
2022-10-04T07:58:50.257Z,5.1
2022-10-04T08:00:50.230Z,5.1
2022-10-04T08:02:50.814Z,5.2
2022-10-04T08:04:50.268Z,4.9
2022-10-04T08:06:50.662Z,4.9
2022-10-04T08:08:50.609Z,4.9
2022-10-04T08:10:57.363Z,5.5
2022-10-04T08:12:49.715Z,5.3
2022-10-04T08:14:50.662Z,5.2
2022-10-04T08:16:49.806Z,5.2
2022-10-04T08:18:49.894Z,5.1
2022-10-04T08:20:49.739Z,5.4
2022-10-04T08:22:50.012Z,5.0
2022-10-04T08:24:53.806Z,5.0
2022-10-04T08:26:50.057Z,5.1
2022-10-04T08:28:49.959Z,5.1
2022-10-04T08:30:49.946Z,5.2
2022-10-04T08:32:50.144Z,5.4
2022-10-04T08:34:49.724Z,5.1
2022-10-04T08:36:50.279Z,5.1
2022-10-04T08:38:50.346Z,5.1
2022-10-04T08:40:50.264Z,5.0
2022-10-04T08:42:50.621Z,4.9
2022-10-04T08:44:50.439Z,5.3
2022-10-04T08:46:50.773Z,5.6
2022-10-04T08:48:49.896Z,5.6
2022-10-04T08:50:50.572Z,5.2
2022-10-04T08:52:50.520Z,5.2
2022-10-04T08:54:50.367Z,5.0
2022-10-04T08:56:50.499Z,5.0
2022-10-04T08:58:50.385Z,5.1
2022-10-04T09:00:50.458Z,4.8
2022-10-04T09:02:50.626Z,5.1
2022-10-04T09:04:50.395Z,5.0
2022-10-04T09:06:50.330Z,5.0
2022-10-04T09:08:50.161Z,5.2
2022-10-04T09:10:50.266Z,4.8
2022-10-04T09:12:50.080Z,5.2
2022-10-04T09:14:50.029Z,5.3
2022-10-04T09:16:50.289Z,5.3
2022-10-04T09:18:50.185Z,5.2
2022-10-04T09:20:50.161Z,5.1
2022-10-04T09:22:49.997Z,5.1
2022-10-04T09:24:50.158Z,4.7
2022-10-04T09:26:49.956Z,4.7
2022-10-04T09:28:49.953Z,5.4
2022-10-04T09:30:50.509Z,5.4
2022-10-04T09:32:50.549Z,5.2
2022-10-04T09:34:49.860Z,5.2
2022-10-04T09:36:49.969Z,5.1
2022-10-04T09:39:18.286Z,5.0
2022-10-04T09:40:50.029Z,4.7
2022-10-04T09:42:50.031Z,5.1
2022-10-04T09:44:50.091Z,5.1
2022-10-04T09:46:56.442Z,5.0
2022-10-04T09:48:50.060Z,4.9
2022-10-04T09:50:49.875Z,5.2
2022-10-04T09:52:49.762Z,5.0
2022-10-04T09:54:49.733Z,5.0
2022-10-04T09:56:49.777Z,5.2
2022-10-04T09:58:49.935Z,5.1
2022-10-04T10:00:50.043Z,5.6
2022-10-04T10:02:50.191Z,5.3
2022-10-04T10:04:50.143Z,5.3
2022-10-04T10:06:50.271Z,5.4
2022-10-04T10:08:50.292Z,5.0
2022-10-04T10:10:50.167Z,5.1
2022-10-04T10:12:50.132Z,4.9
2022-10-04T10:14:50.322Z,4.9
2022-10-04T10:16:49.694Z,5.1
2022-10-04T10:18:49.684Z,5.1
2022-10-04T10:20:50.582Z,5.1
2022-10-04T10:22:49.679Z,4.9
2022-10-04T10:24:49.798Z,4.9
2022-10-04T10:26:49.793Z,4.9
2022-10-04T10:28:50.068Z,4.4
2022-10-04T10:30:50.154Z,4.3
2022-10-04T10:32:50.213Z,3.8
2022-10-04T10:34:49.725Z,3.8
2022-10-04T10:36:50.048Z,3.4
2022-10-04T10:38:49.987Z,3.5
2022-10-04T10:40:49.939Z,3.7
2022-10-04T10:42:49.781Z,3.7
2022-10-04T10:44:49.896Z,3.7
2022-10-04T10:46:50.211Z,3.9
2022-10-04T10:48:50.663Z,3.2
2022-10-04T10:50:50.510Z,3.0
2022-10-04T10:52:50.436Z,3.0
2022-10-04T10:54:50.327Z,2.9
2022-10-04T10:56:49.695Z,2.6
2022-10-04T10:58:49.656Z,3.2
2022-10-04T11:00:50.667Z,3.0
2022-10-04T11:02:51.147Z,3.0
2022-10-04T11:04:50.046Z,2.1
2022-10-04T11:06:50.398Z,2.4
2022-10-04T11:08:50.647Z,2.5
2022-10-04T11:10:52.229Z,2.1
2022-10-04T11:12:50.130Z,2.1
2022-10-04T11:14:50.318Z,2.0
2022-10-04T11:16:49.980Z,2.2
2022-10-04T11:18:49.969Z,2.2
2022-10-04T11:20:50.001Z,1.8
2022-10-04T11:22:49.963Z,2.2
2022-10-04T11:24:50.219Z,2.1
2022-10-04T11:26:50.335Z,1.7
2022-10-04T11:28:50.386Z,1.6
2022-10-04T11:30:50.395Z,1.6
2022-10-04T11:32:50.688Z,2.0
2022-10-04T11:34:50.161Z,1.8
2022-10-04T11:36:49.960Z,1.8
2022-10-04T11:38:50.221Z,1.9
2022-10-04T11:40:50.029Z,1.9
2022-10-04T11:42:50.033Z,1.7
2022-10-04T11:44:50.012Z,1.7
2022-10-04T11:46:50.568Z,1.9
2022-10-04T11:48:49.877Z,1.9
2022-10-04T11:50:49.959Z,1.7
2022-10-04T11:52:50.032Z,1.7
2022-10-04T11:54:50.026Z,1.9
2022-10-04T11:56:50.424Z,1.9
2022-10-04T11:58:50.473Z,1.8
2022-10-04T12:00:50.498Z,1.8
2022-10-04T12:02:49.680Z,1.6
2022-10-04T12:04:50.423Z,1.7
2022-10-04T12:06:50.149Z,1.9
2022-10-04T12:08:50.372Z,1.5
2022-10-04T12:10:50.302Z,1.5
2022-10-04T12:12:50.527Z,1.5
2022-10-04T12:14:50.494Z,1.6
2022-10-04T12:16:50.558Z,1.6
2022-10-04T12:18:50.012Z,1.7
2022-10-04T12:20:49.868Z,1.7
2022-10-04T12:22:49.927Z,1.4
2022-10-04T12:24:50.008Z,1.6
2022-10-04T12:26:50.447Z,1.8
2022-10-04T12:28:50.580Z,1.8
2022-10-04T12:30:50.553Z,1.5
2022-10-04T12:32:57.710Z,1.6
2022-10-04T12:34:49.929Z,1.5
2022-10-04T12:36:50.493Z,1.5
2022-10-04T12:38:50.464Z,1.5
2022-10-04T12:40:50.538Z,1.7
2022-10-04T12:42:50.612Z,1.9
2022-10-04T12:44:50.503Z,1.9
2022-10-04T12:46:49.859Z,1.5
2022-10-04T12:48:49.911Z,1.5
2022-10-04T12:50:49.996Z,1.7
2022-10-04T12:52:49.885Z,1.8
2022-10-04T12:54:49.716Z,1.9
2022-10-04T12:56:50.078Z,1.6
2022-10-04T12:58:49.846Z,1.6
2022-10-04T13:00:50.175Z,1.5
2022-10-04T13:02:50.264Z,1.6
2022-10-04T13:04:49.833Z,1.5
2022-10-04T13:06:50.821Z,1.5
2022-10-04T13:08:49.920Z,1.6
2022-10-04T13:10:50.175Z,1.5
2022-10-04T13:12:50.039Z,1.9
2022-10-04T13:14:50.111Z,1.7
2022-10-04T13:18:50.605Z,1.6
2022-10-04T13:20:50.651Z,1.8
2022-10-04T13:22:58.119Z,1.8
2022-10-04T13:24:50.480Z,1.7
2022-10-04T13:26:49.792Z,1.7
2022-10-04T13:28:49.791Z,1.9
2022-10-04T13:30:49.769Z,1.7
2022-10-04T13:32:49.718Z,2.0
2022-10-04T13:34:49.702Z,2.0
2022-10-04T13:36:49.760Z,1.7
2022-10-04T13:38:49.904Z,1.8
2022-10-04T13:40:50.034Z,1.9
2022-10-04T13:42:49.890Z,1.7
2022-10-04T13:44:50.095Z,1.7
2022-10-04T13:46:50.384Z,1.7
2022-10-04T13:48:50.401Z,2.2
2022-10-04T13:50:50.413Z,1.8
2022-10-04T13:52:50.466Z,2.0
2022-10-04T13:54:50.478Z,2.0
2022-10-04T13:56:49.850Z,2.0
2022-10-04T13:58:49.991Z,1.5
2022-10-04T14:00:50.076Z,1.7
2022-10-04T14:02:50.168Z,1.9
2022-10-04T14:04:49.766Z,1.9
2022-10-04T14:06:49.999Z,1.7
2022-10-04T14:08:50.182Z,1.7
2022-10-04T14:10:50.270Z,1.8
2022-10-04T14:12:50.274Z,1.8
2022-10-04T14:14:50.395Z,1.7
2022-10-04T14:16:49.755Z,1.7
2022-10-04T14:18:50.180Z,1.8
2022-10-04T14:20:50.138Z,1.7
2022-10-04T14:22:50.188Z,1.5
2022-10-04T14:24:50.172Z,1.5
2022-10-04T14:26:50.493Z,1.6
2022-10-04T14:28:50.577Z,1.7
2022-10-04T14:30:50.471Z,1.8
2022-10-04T14:32:50.650Z,1.8
2022-10-04T14:34:50.436Z,1.7
2022-10-04T14:36:49.811Z,1.7
2022-10-04T14:38:50.026Z,1.9
2022-10-04T14:40:50.232Z,1.5
2022-10-04T14:42:50.532Z,1.5
2022-10-04T14:44:49.836Z,1.6
2022-10-04T14:46:50.085Z,1.7
2022-10-04T14:48:50.190Z,1.8
2022-10-04T14:50:50.223Z,1.6
2022-10-04T14:52:50.363Z,1.6
2022-10-04T14:54:50.267Z,1.6
2022-10-04T14:56:50.475Z,1.8
2022-10-04T14:58:50.522Z,1.5
2022-10-04T15:00:50.611Z,1.5
2022-10-04T15:02:50.366Z,1.6
2022-10-04T15:04:50.215Z,1.5
2022-10-04T15:06:49.960Z,1.5
2022-10-04T15:08:50.408Z,1.5
2022-10-04T15:10:50.630Z,1.6
2022-10-04T15:13:11.705Z,1.6
2022-10-04T15:14:50.633Z,1.6
2022-10-04T15:16:50.114Z,1.5
2022-10-04T15:18:49.993Z,1.5
2022-10-04T15:20:50.213Z,1.7
2022-10-04T15:22:50.396Z,1.7
2022-10-04T15:24:50.352Z,1.7
2022-10-04T15:26:49.744Z,1.6
2022-10-04T15:28:49.869Z,1.6
2022-10-04T15:30:50.142Z,1.8
2022-10-04T15:32:50.469Z,1.8
2022-10-04T15:34:49.927Z,1.4
2022-10-04T15:36:50.264Z,1.7
2022-10-04T15:38:50.233Z,1.8
2022-10-04T15:40:50.177Z,1.8
2022-10-04T15:42:50.184Z,1.4
2022-10-04T15:44:50.208Z,1.4
2022-10-04T15:46:50.676Z,1.5
2022-10-04T15:48:50.631Z,1.5
2022-10-04T15:50:49.879Z,1.5
2022-10-04T15:52:49.912Z,1.6
2022-10-04T15:54:49.708Z,1.6
2022-10-04T15:56:50.221Z,1.6
2022-10-04T15:58:53.491Z,1.6
2022-10-04T16:00:50.486Z,1.6
2022-10-04T16:02:50.474Z,1.5
2022-10-04T16:04:50.564Z,1.7
2022-10-04T16:06:49.803Z,1.7
2022-10-04T16:08:49.786Z,1.7
2022-10-04T16:10:49.889Z,1.7
2022-10-04T16:12:49.910Z,1.8
2022-10-04T16:14:49.852Z,1.8
2022-10-04T16:16:50.311Z,2.0
2022-10-04T16:18:50.246Z,2.0
2022-10-04T16:20:50.198Z,2.0
2022-10-04T16:22:50.046Z,1.8
2022-10-04T16:24:50.026Z,2.3
2022-10-04T16:26:50.547Z,1.9
2022-10-04T16:28:50.558Z,1.9
2022-10-04T16:30:49.961Z,1.9
2022-10-04T16:32:50.117Z,1.9
2022-10-04T16:34:50.525Z,2.1
2022-10-04T16:36:50.043Z,2.0
2022-10-04T16:38:50.032Z,2.0
2022-10-04T16:40:50.039Z,1.9
2022-10-04T16:42:50.027Z,1.9
2022-10-04T16:44:49.974Z,2.1
2022-10-04T16:46:50.215Z,2.1
2022-10-04T16:48:50.363Z,2.3
2022-10-04T16:50:50.406Z,2.3
2022-10-04T16:52:50.371Z,2.3
2022-10-04T16:54:50.363Z,2.2
2022-10-04T16:56:50.615Z,2.2
2022-10-04T16:58:50.589Z,2.2
2022-10-04T17:00:50.392Z,2.1
2022-10-04T17:02:49.689Z,2.4
2022-10-04T17:04:50.345Z,2.4
2022-10-04T17:06:49.938Z,2.2
2022-10-04T17:08:50.213Z,2.0
2022-10-04T17:10:50.147Z,2.1
2022-10-04T17:12:50.190Z,2.1
2022-10-04T17:14:50.232Z,2.1
2022-10-04T17:16:50.566Z,2.1
2022-10-04T17:18:50.542Z,2.1
2022-10-04T17:20:50.464Z,2.2
2022-10-04T17:22:50.459Z,2.3
2022-10-04T17:24:50.526Z,2.3
2022-10-04T17:26:49.842Z,2.3
2022-10-04T17:28:49.814Z,2.3
2022-10-04T17:30:49.921Z,2.6
2022-10-04T17:32:49.989Z,2.6
2022-10-04T17:34:50.323Z,2.6
2022-10-04T17:36:49.721Z,2.6
2022-10-04T17:38:49.719Z,2.5
2022-10-04T17:40:50.573Z,2.6
2022-10-04T17:42:50.609Z,2.4
2022-10-04T17:44:50.420Z,2.4
2022-10-04T17:46:50.678Z,2.4
2022-10-04T17:48:50.003Z,2.5
2022-10-04T17:50:49.834Z,2.5
2022-10-04T17:52:53.281Z,2.8
2022-10-04T17:54:50.187Z,2.8
2022-10-04T17:56:50.597Z,2.8
2022-10-04T17:58:49.721Z,2.8
2022-10-04T18:00:50.486Z,2.6
2022-10-04T18:02:50.626Z,2.6
2022-10-04T18:04:50.618Z,2.5
2022-10-04T18:06:49.975Z,2.7
2022-10-04T18:08:49.756Z,2.5
2022-10-04T18:10:50.598Z,2.5
2022-10-04T18:12:50.510Z,2.5
2022-10-04T18:14:50.390Z,2.5
2022-10-04T18:16:50.676Z,2.8
2022-10-04T18:18:50.615Z,2.5
2022-10-04T18:20:49.689Z,2.5
2022-10-04T18:22:49.945Z,2.6
2022-10-04T18:24:49.951Z,2.6
2022-10-04T18:26:56.678Z,2.4
2022-10-04T18:28:49.739Z,2.5
2022-10-04T18:30:50.684Z,2.3
2022-10-04T18:32:49.833Z,2.5
2022-10-04T18:34:50.421Z,2.5
2022-10-04T18:36:49.867Z,2.3
2022-10-04T18:38:49.826Z,2.6
2022-10-04T18:40:49.948Z,2.3
2022-10-04T18:42:50.145Z,2.3
2022-10-04T18:44:50.115Z,2.6
2022-10-04T18:46:51.372Z,2.7
2022-10-04T18:48:49.817Z,2.7
2022-10-04T18:50:49.955Z,2.7
2022-10-04T18:52:50.225Z,2.6
2022-10-04T18:54:50.311Z,2.6
2022-10-04T18:56:51.585Z,2.7
2022-10-04T18:58:50.685Z,2.7
2022-10-04T19:00:50.138Z,2.7
2022-10-04T19:02:49.829Z,2.8
2022-10-04T19:04:50.438Z,2.6
2022-10-04T19:06:50.351Z,2.4
2022-10-04T19:08:50.046Z,2.4
2022-10-04T19:10:50.872Z,2.4
2022-10-04T19:12:50.544Z,2.6
2022-10-04T19:14:50.338Z,2.6
2022-10-04T19:16:51.034Z,2.9
2022-10-04T19:18:50.797Z,2.9
2022-10-04T19:20:50.558Z,2.7
2022-10-04T19:22:50.338Z,2.7
2022-10-04T19:24:50.425Z,2.8
2022-10-04T19:26:50.751Z,2.9
2022-10-04T19:28:50.625Z,2.9
2022-10-04T19:30:50.379Z,2.7
2022-10-04T19:32:50.343Z,2.7
2022-10-04T19:34:50.614Z,2.7
2022-10-04T19:36:50.612Z,3.3
2022-10-04T19:38:50.423Z,3.3
2022-10-04T19:40:50.125Z,3.2
2022-10-04T19:42:50.000Z,3.1
2022-10-04T19:44:50.047Z,3.3
2022-10-04T19:46:50.970Z,3.4
2022-10-04T19:48:50.588Z,3.4
2022-10-04T19:50:50.459Z,3.3
2022-10-04T19:52:49.944Z,3.7
2022-10-04T19:54:50.301Z,3.6
2022-10-04T19:56:49.997Z,3.5
2022-10-04T19:58:50.483Z,3.5
2022-10-04T20:00:50.109Z,3.7
2022-10-04T20:02:49.997Z,3.9
2022-10-04T20:04:50.062Z,3.9
2022-10-04T20:06:50.730Z,4.0
2022-10-04T20:08:50.349Z,3.9
2022-10-04T20:10:50.671Z,3.9
2022-10-04T20:12:50.270Z,4.3
2022-10-04T20:14:50.670Z,4.6
2022-10-04T20:16:51.529Z,4.4
2022-10-04T20:18:50.244Z,4.4
2022-10-04T20:20:50.610Z,4.5
2022-10-04T20:22:50.099Z,3.9
2022-10-04T20:24:50.110Z,4.2
2022-10-04T20:26:54.654Z,3.8
2022-10-04T20:28:50.153Z,3.8
2022-10-04T20:30:50.197Z,3.5
2022-10-04T20:32:50.449Z,3.7
2022-10-04T20:34:50.433Z,3.7
2022-10-04T20:36:49.815Z,3.7
2022-10-04T20:38:50.706Z,3.6
2022-10-04T20:40:50.646Z,3.6
2022-10-04T20:42:50.623Z,3.8
2022-10-04T20:44:50.494Z,3.6
2022-10-04T20:46:49.893Z,4.1
2022-10-04T20:48:49.880Z,4.1
2022-10-04T20:50:49.985Z,4.0
2022-10-04T20:52:50.486Z,4.0
2022-10-04T20:54:50.396Z,3.9
2022-10-04T20:56:49.868Z,3.8
2022-10-04T20:58:49.769Z,3.8
2022-10-04T21:00:50.141Z,3.9
2022-10-04T21:02:50.229Z,3.9
2022-10-04T21:04:50.656Z,4.7
2022-10-04T21:06:50.045Z,4.7
2022-10-04T21:08:49.917Z,4.3
2022-10-04T21:10:49.981Z,4.3
2022-10-04T21:12:49.950Z,4.5
2022-10-04T21:14:49.872Z,4.5
2022-10-04T21:16:51.799Z,4.8
2022-10-04T21:18:50.359Z,4.3
2022-10-04T21:20:50.293Z,4.6
2022-10-04T21:22:53.590Z,4.8
2022-10-04T21:24:50.488Z,4.8
2022-10-04T21:26:49.923Z,5.0
2022-10-04T21:28:49.911Z,4.6
2022-10-04T21:30:49.960Z,5.0
2022-10-04T21:32:49.946Z,5.1
2022-10-04T21:34:54.504Z,5.1
2022-10-04T21:36:50.388Z,5.2
2022-10-04T21:38:50.207Z,6.0
2022-10-04T21:40:50.127Z,5.3
2022-10-04T21:42:50.026Z,5.3
2022-10-04T21:44:50.415Z,5.4
2022-10-04T21:46:50.618Z,5.4
2022-10-04T21:48:50.543Z,5.2
2022-10-04T21:50:50.600Z,5.1
2022-10-04T21:52:50.577Z,5.7
2022-10-04T21:54:50.643Z,5.7
2022-10-04T21:56:49.933Z,5.7
2022-10-04T21:58:50.064Z,5.5
2022-10-04T22:00:50.175Z,5.3
2022-10-04T22:02:50.304Z,5.3
2022-10-04T22:04:50.650Z,5.2
2022-10-04T22:06:50.100Z,5.2
2022-10-04T22:08:50.024Z,5.3
2022-10-04T22:10:56.886Z,5.3
2022-10-04T22:12:49.756Z,5.2
2022-10-04T22:14:50.640Z,5.3
2022-10-04T22:16:51.209Z,5.6
2022-10-04T22:18:49.863Z,5.0
2022-10-04T22:20:49.882Z,5.1
2022-10-04T22:22:49.942Z,5.2
2022-10-04T22:24:50.006Z,5.2
2022-10-04T22:26:50.797Z,5.0
2022-10-04T22:28:50.614Z,4.7
2022-10-04T22:30:50.616Z,4.7
2022-10-04T22:32:50.633Z,4.7
2022-10-04T22:34:50.060Z,4.7
2022-10-04T22:36:50.766Z,4.6
2022-10-04T22:38:50.667Z,4.9
2022-10-04T22:40:50.471Z,5.1
2022-10-04T22:42:50.545Z,5.4
2022-10-04T22:44:50.368Z,5.4
2022-10-04T22:46:49.716Z,4.7
2022-10-04T22:48:49.908Z,5.0
2022-10-04T22:50:49.931Z,5.0
2022-10-04T22:52:49.955Z,4.8
2022-10-04T22:54:49.987Z,4.8
2022-10-04T22:56:50.262Z,4.8
2022-10-04T22:58:50.307Z,4.6
2022-10-04T23:00:50.337Z,4.8
2022-10-04T23:02:50.746Z,4.8
2022-10-04T23:04:50.652Z,4.5
2022-10-04T23:06:50.265Z,4.1
2022-10-04T23:08:50.139Z,4.1
2022-10-04T23:10:50.273Z,4.3
2022-10-04T23:12:50.031Z,4.3
2022-10-04T23:14:50.097Z,4.6
2022-10-04T23:16:50.468Z,4.6
2022-10-04T23:18:50.543Z,4.1
2022-10-04T23:20:50.568Z,4.1
2022-10-04T23:22:50.428Z,4.2
2022-10-04T23:24:50.322Z,4.2
2022-10-04T23:26:50.766Z,4.7
2022-10-04T23:28:49.726Z,4.8
2022-10-04T23:30:49.813Z,4.8
2022-10-04T23:32:49.846Z,4.9
2022-10-04T23:34:57.004Z,4.4
2022-10-04T23:36:50.645Z,4.7
2022-10-04T23:38:49.748Z,4.7
2022-10-04T23:40:50.008Z,4.7
2022-10-04T23:42:49.861Z,4.9
2022-10-04T23:44:49.967Z,5.0
2022-10-04T23:46:50.316Z,4.7
2022-10-04T23:48:50.386Z,4.7
2022-10-04T23:50:50.415Z,4.8
2022-10-04T23:52:50.485Z,4.8
2022-10-04T23:54:50.698Z,4.8
2022-10-04T23:56:50.166Z,5.0
2022-10-04T23:58:49.965Z,5.0
